Time;durP1;ratioP1;P1;durP2;ratioP2;P2;SDS_P1;SDS_P2;PMS_P1;PMS_P2;Temp;Humidity;BMP_temperature;BMP_pressure;BME280_temperature;BME280_humidity;BME280_pressure;Samples;Min_cycle;Max_cycle;Signal;HPM_P1;HPM_P2
2022/10/18 00:01:38;;;;;;;3.17;1.40;;;13.50;99.90;;;;;;4975857;28;20104;-86
2022/10/18 00:04:03;;;;;;;2.67;1.20;;;13.50;99.90;;;;;;4975475;28;20082;-87
2022/10/18 00:06:29;;;;;;;1.40;0.85;;;13.40;99.90;;;;;;4993344;28;20117;-86
2022/10/18 00:08:55;;;;;;;1.85;1.10;;;13.40;99.90;;;;;;4976478;28;20058;-87
2022/10/18 00:11:20;;;;;;;5.00;1.38;;;13.40;99.90;;;;;;4983607;28;20053;-86
2022/10/18 00:13:46;;;;;;;4.95;1.58;;;13.90;99.90;;;;;;4999512;28;20046;-85
2022/10/18 00:16:14;;;;;;;5.30;1.63;;;13.30;99.90;;;;;;4992037;28;20483;-85
2022/10/18 00:18:40;;;;;;;4.70;1.45;;;13.30;99.90;;;;;;4994213;28;20073;-92
2022/10/18 00:21:18;;;;;;;2.15;1.20;;;13.30;99.90;;;;;;4992873;28;20046;-84
2022/10/18 00:23:45;;;;;;;3.67;1.30;;;13.20;99.90;;;;;;4991863;28;20121;-84
2022/10/18 00:26:22;;;;;;;3.88;1.23;;;13.40;99.90;;;;;;4991534;28;20050;-84
2022/10/18 00:28:55;;;;;;;2.20;1.15;;;13.20;99.90;;;;;;4992665;28;20066;-84
2022/10/18 00:31:24;;;;;;;4.28;1.58;;;13.50;99.90;;;;;;4992686;28;20085;-85
2022/10/18 00:33:52;;;;;;;5.07;1.58;;;13.10;99.90;;;;;;4997575;28;20062;-84
2022/10/18 00:36:19;;;;;;;4.85;1.17;;;13.00;99.90;;;;;;4993396;28;20045;-84
2022/10/18 00:38:45;;;;;;;2.50;1.23;;;13.10;99.90;;;;;;4975729;28;20046;-84
2022/10/18 00:41:14;;;;;;;3.17;1.02;;;13.10;99.90;;;;;;4998614;28;20053;-84
2022/10/18 00:44:00;;;;;;;3.50;1.20;;;13.00;99.90;;;;;;4991883;28;20046;-85
2022/10/18 00:46:30;;;;;;;4.22;1.55;;;13.00;99.90;;;;;;4992273;28;20050;-87
2022/10/18 00:49:00;;;;;;;4.95;1.33;;;13.00;99.90;;;;;;4993056;28;20380;-85
2022/10/18 00:51:32;;;;;;;2.10;1.08;;;13.10;99.90;;;;;;4992827;28;20038;-86
2022/10/18 00:53:58;;;;;;;5.40;1.30;;;13.00;99.90;;;;;;4992888;28;20050;-84
2022/10/18 00:56:24;;;;;;;4.90;1.40;;;13.60;99.90;;;;;;5001559;28;20041;-89
2022/10/18 00:58:50;;;;;;;2.17;1.17;;;12.90;99.90;;;;;;4995469;28;20471;-84
2022/10/18 01:01:16;;;;;;;1.85;1.00;;;12.90;99.90;;;;;;4995458;28;20509;-84
2022/10/18 01:03:42;;;;;;;4.03;1.15;;;12.80;99.90;;;;;;4995306;28;20046;-87
2022/10/18 01:06:08;;;;;;;3.38;1.38;;;12.90;99.90;;;;;;4996228;28;20398;-85
2022/10/18 01:09:06;;;;;;;5.43;1.90;;;12.80;99.90;;;;;;4994826;28;20073;-84
2022/10/18 01:11:34;;;;;;;3.53;2.00;;;12.90;99.90;;;;;;4992233;28;20057;-85
2022/10/18 01:14:13;;;;;;;5.05;2.03;;;12.90;99.90;;;;;;4996083;28;20115;-87
2022/10/18 01:16:45;;;;;;;3.13;1.58;;;13.80;99.90;;;;;;4994812;28;20105;-84
2022/10/18 01:19:48;;;;;;;3.97;2.25;;;13.00;99.90;;;;;;4997359;28;20054;-92
2022/10/18 01:22:30;;;;;;;4.10;1.73;;;12.90;99.90;;;;;;4995498;28;20129;-85
2022/10/18 01:25:20;;;;;;;4.53;1.92;;;12.90;99.90;;;;;;4995668;28;20050;-85
2022/10/18 01:28:15;;;;;;;3.63;1.30;;;12.80;99.90;;;;;;4995973;28;20077;-85
2022/10/18 01:31:23;;;;;;;2.42;1.50;;;12.80;99.90;;;;;;4995960;28;20054;-85
2022/10/18 01:34:09;;;;;;;3.50;1.80;;;12.80;99.90;;;;;;4959774;28;20543;-86
2022/10/18 01:36:39;;;;;;;4.43;1.85;;;13.20;99.90;;;;;;4986255;28;20049;-84
2022/10/18 01:39:08;;;;;;;3.58;1.92;;;12.70;99.90;;;;;;4975552;28;20145;-84
2022/10/18 01:41:36;;;;;;;5.50;2.70;;;12.70;99.90;;;;;;4981060;28;20039;-85
2022/10/18 01:44:05;;;;;;;5.32;2.75;;;12.80;99.90;;;;;;4989461;28;20047;-84
2022/10/18 01:46:32;;;;;;;3.97;1.88;;;12.80;99.90;;;;;;4958427;28;20047;-84
2022/10/18 01:48:58;;;;;;;3.70;1.92;;;12.80;99.90;;;;;;4960277;28;20504;-85
2022/10/18 01:51:26;;;;;;;3.33;1.70;;;13.10;99.90;;;;;;4985333;28;20164;-86
2022/10/18 01:53:52;;;;;;;3.75;2.13;;;12.80;99.90;;;;;;4976762;28;20042;-86
2022/10/18 01:56:31;;;;;;;4.32;2.17;;;12.70;99.90;;;;;;4991303;28;20077;-89
2022/10/18 01:59:18;;;;;;;5.07;2.50;;;12.80;99.90;;;;;;4987672;28;20562;-85
2022/10/18 02:02:04;;;;;;;3.03;1.77;;;12.80;99.90;;;;;;4973138;28;20416;-85
2022/10/18 02:04:42;;;;;;;2.38;1.55;;;12.80;99.90;;;;;;4991035;28;20235;-87
2022/10/18 02:07:47;;;;;;;3.75;1.88;;;12.80;99.90;;;;;;4985031;28;20046;-86
2022/10/18 02:10:22;;;;;;;2.70;1.30;;;12.80;99.90;;;;;;4964635;28;20058;-86
2022/10/18 02:12:51;;;;;;;3.28;1.77;;;12.80;99.90;;;;;;4978182;28;20051;-86
2022/10/18 02:15:22;;;;;;;2.80;1.73;;;13.00;99.90;;;;;;4995512;28;20092;-86
2022/10/18 02:17:49;;;;;;;3.83;2.28;;;12.80;99.90;;;;;;4994733;28;20061;-86
2022/10/18 02:20:18;;;;;;;6.07;2.92;;;12.80;99.90;;;;;;4961624;28;20053;-86
2022/10/18 02:22:46;;;;;;;5.40;3.40;;;12.70;99.90;;;;;;4995171;28;20050;-86
2022/10/18 02:25:20;;;;;;;2.53;1.95;;;12.80;99.90;;;;;;4995233;28;20045;-88
2022/10/18 02:27:46;;;;;;;3.45;1.98;;;12.80;99.90;;;;;;4977234;28;20048;-90
2022/10/18 02:30:14;;;;;;;4.93;2.72;;;12.80;99.90;;;;;;4994414;28;20046;-89
2022/10/18 02:32:43;;;;;;;7.10;2.75;;;13.10;99.90;;;;;;4986224;28;20054;-85
2022/10/18 02:35:24;;;;;;;4.15;2.05;;;12.80;99.90;;;;;;4999806;28;20038;-86
2022/10/18 02:37:52;;;;;;;4.85;2.42;;;12.80;99.90;;;;;;4994575;28;20494;-86
2022/10/18 02:40:18;;;;;;;4.07;2.00;;;12.80;99.90;;;;;;4994449;28;20042;-87
2022/10/18 02:42:47;;;;;;;3.58;2.10;;;12.80;99.90;;;;;;4994124;28;20132;-85
2022/10/18 02:45:14;;;;;;;6.53;3.35;;;13.00;99.90;;;;;;4995297;28;20414;-87
2022/10/18 02:47:40;;;;;;;4.13;1.90;;;13.30;99.90;;;;;;4994228;28;20046;-85
2022/10/18 02:50:06;;;;;;;4.43;2.00;;;12.70;99.90;;;;;;4977040;28;20042;-88
2022/10/18 02:52:32;;;;;;;3.00;1.50;;;12.70;99.90;;;;;;4976633;28;20042;-90
2022/10/18 02:54:58;;;;;;;2.67;1.50;;;13.10;99.90;;;;;;4977004;28;20101;-86
2022/10/18 02:57:23;;;;;;;3.08;1.80;;;12.70;99.90;;;;;;4996835;28;20073;-85
2022/10/18 02:59:49;;;;;;;3.28;1.70;;;12.70;99.90;;;;;;4994851;28;20050;-86
2022/10/18 03:02:15;;;;;;;3.67;1.77;;;12.60;99.90;;;;;;4994050;28;20049;-86
2022/10/18 03:04:40;;;;;;;5.88;2.03;;;13.10;99.90;;;;;;4976531;28;20109;-85
2022/10/18 03:07:06;;;;;;;2.35;1.42;;;12.60;99.90;;;;;;4994603;28;20514;-87
2022/10/18 03:09:32;;;;;;;2.72;1.63;;;12.60;99.90;;;;;;4976561;28;20050;-85
2022/10/18 03:11:58;;;;;;;2.10;1.40;;;12.60;99.90;;;;;;4998061;28;20054;-85
2022/10/18 03:14:23;;;;;;;5.03;2.15;;;12.60;99.90;;;;;;4976512;28;20042;-88
2022/10/18 03:16:49;;;;;;;3.20;1.80;;;12.50;99.90;;;;;;4994539;28;20046;-85
2022/10/18 03:19:15;;;;;;;3.53;1.77;;;12.50;99.90;;;;;;4992663;28;20444;-88
2022/10/18 03:21:40;;;;;;;3.63;1.30;;;12.50;99.90;;;;;;4976029;28;20093;-86
2022/10/18 03:24:06;;;;;;;7.53;3.00;;;12.50;99.90;;;;;;4993329;28;20458;-86
2022/10/18 03:26:32;;;;;;;3.63;1.88;;;12.50;99.90;;;;;;4976652;28;20047;-86
2022/10/18 03:28:57;;;;;;;3.05;1.63;;;12.50;99.90;;;;;;4975956;28;20043;-87
2022/10/18 03:31:23;;;;;;;2.08;1.35;;;12.50;99.90;;;;;;4976008;28;20050;-86
2022/10/18 03:33:49;;;;;;;2.50;1.45;;;12.70;99.90;;;;;;4993357;28;20061;-86
2022/10/18 03:36:15;;;;;;;5.45;1.63;;;12.40;99.90;;;;;;4994099;28;20046;-89
2022/10/18 03:38:41;;;;;;;5.75;2.22;;;12.40;99.90;;;;;;4993803;28;20049;-85
2022/10/18 03:41:06;;;;;;;4.63;3.00;;;12.40;99.90;;;;;;4994099;28;20038;-86
2022/10/18 03:43:32;;;;;;;5.50;3.47;;;12.70;99.90;;;;;;4993356;28;20037;-84
2022/10/18 03:45:59;;;;;;;4.70;2.85;;;12.40;99.90;;;;;;4997258;28;20042;-89
2022/10/18 03:48:24;;;;;;;3.80;2.38;;;12.40;99.90;;;;;;4996153;28;20049;-84
2022/10/18 03:50:50;;;;;;;3.40;2.25;;;12.40;99.90;;;;;;4994365;28;20034;-84
2022/10/18 03:53:16;;;;;;;2.35;1.45;;;12.40;99.90;;;;;;4979591;28;20045;-87
2022/10/18 03:55:42;;;;;;;2.78;1.33;;;12.40;99.90;;;;;;4979219;28;20111;-84
2022/10/18 03:58:08;;;;;;;3.35;2.05;;;12.70;99.90;;;;;;4978961;28;20046;-86
2022/10/18 04:00:33;;;;;;;3.28;2.00;;;12.40;99.90;;;;;;4996501;28;20356;-84
2022/10/18 04:02:59;;;;;;;3.10;1.83;;;12.60;99.90;;;;;;5004851;28;20042;-85
2022/10/18 04:05:29;;;;;;;3.70;1.95;;;12.40;99.90;;;;;;4980976;28;20057;-85
2022/10/18 04:07:56;;;;;;;5.65;1.92;;;12.30;99.90;;;;;;4979916;28;20480;-85
2022/10/18 04:10:22;;;;;;;2.28;1.48;;;12.40;99.90;;;;;;4979022;28;20435;-85
2022/10/18 04:12:48;;;;;;;4.25;2.10;;;12.40;99.90;;;;;;4995789;28;20046;-85
2022/10/18 04:15:13;;;;;;;2.78;1.58;;;12.60;99.90;;;;;;4995308;28;20117;-85
2022/10/18 04:17:39;;;;;;;2.83;1.67;;;12.30;99.90;;;;;;4978964;28;20054;-85
2022/10/18 04:20:05;;;;;;;2.70;1.70;;;12.40;99.90;;;;;;4992732;28;20042;-86
2022/10/18 04:22:31;;;;;;;4.00;2.30;;;12.40;99.90;;;;;;4993120;28;20046;-90
2022/10/18 04:24:57;;;;;;;4.07;1.98;;;12.30;99.90;;;;;;4994373;28;20081;-84
2022/10/18 04:27:23;;;;;;;4.20;1.92;;;12.30;99.90;;;;;;4994048;28;20047;-84
2022/10/18 04:29:48;;;;;;;4.68;2.05;;;12.30;99.90;;;;;;4976868;28;20526;-85
2022/10/18 04:32:14;;;;;;;4.53;2.13;;;12.30;99.90;;;;;;5004498;28;20042;-84
2022/10/18 04:34:39;;;;;;;4.93;2.90;;;12.30;99.90;;;;;;4980079;28;20482;-86
2022/10/18 04:37:05;;;;;;;4.65;2.30;;;12.20;99.90;;;;;;4988169;28;20042;-84
2022/10/18 04:39:31;;;;;;;4.43;2.55;;;12.30;99.90;;;;;;4996695;28;20470;-84
2022/10/18 04:41:57;;;;;;;3.78;2.50;;;12.30;99.90;;;;;;4979670;28;20125;-85
2022/10/18 04:44:22;;;;;;;5.18;2.55;;;12.30;99.90;;;;;;4996425;28;20491;-86
2022/10/18 04:46:48;;;;;;;3.20;1.92;;;12.20;99.90;;;;;;4979675;28;20042;-84
2022/10/18 04:49:14;;;;;;;3.05;1.70;;;12.20;99.90;;;;;;4984813;28;20045;-84
2022/10/18 04:51:39;;;;;;;2.83;1.63;;;12.20;99.90;;;;;;4997506;28;20038;-84
2022/10/18 04:54:05;;;;;;;2.72;1.40;;;12.20;99.90;;;;;;4986774;28;20045;-84
2022/10/18 04:56:31;;;;;;;2.70;1.70;;;12.50;99.90;;;;;;4979123;28;20077;-84
2022/10/18 04:58:58;;;;;;;3.20;1.90;;;12.50;99.90;;;;;;4996923;28;20513;-89
2022/10/18 05:01:24;;;;;;;3.03;1.50;;;12.10;99.90;;;;;;4999870;28;20046;-84
2022/10/18 05:03:54;;;;;;;2.80;1.60;;;12.10;99.90;;;;;;4982258;28;20050;-85
2022/10/18 05:06:21;;;;;;;2.15;1.30;;;12.10;99.90;;;;;;4982782;28;20054;-86
2022/10/18 05:08:47;;;;;;;2.10;1.50;;;12.10;99.90;;;;;;4982016;28;20038;-86
2022/10/18 05:11:13;;;;;;;3.35;1.60;;;12.00;99.90;;;;;;4994290;28;20458;-89
2022/10/18 05:13:38;;;;;;;2.15;1.30;;;12.00;99.90;;;;;;4961609;28;20185;-85
2022/10/18 05:16:04;;;;;;;2.72;1.52;;;12.00;99.90;;;;;;4978342;28;20129;-85
2022/10/18 05:18:31;;;;;;;2.60;1.52;;;12.00;99.90;;;;;;4983156;28;20046;-85
2022/10/18 05:20:56;;;;;;;2.35;1.20;;;11.90;99.90;;;;;;4981158;28;20035;-85
2022/10/18 05:23:22;;;;;;;2.50;1.38;;;11.80;99.90;;;;;;4981036;28;20376;-85
2022/10/18 05:25:48;;;;;;;2.40;1.70;;;12.50;99.90;;;;;;4979680;28;20038;-85
2022/10/18 05:28:14;;;;;;;3.00;1.55;;;12.30;99.90;;;;;;4962731;28;20039;-87
2022/10/18 05:30:41;;;;;;;4.47;2.58;;;11.80;99.90;;;;;;4963671;28;20039;-87
2022/10/18 05:33:09;;;;;;;3.72;1.90;;;12.10;99.90;;;;;;4959390;28;20051;-90
2022/10/18 05:36:28;;;;;;;3.05;1.83;;;12.40;99.90;;;;;;4977815;23;20043;-92
2022/10/18 05:39:04;;;;;;;2.22;1.50;;;12.20;99.90;;;;;;5016948;23;20050;-92
2022/10/18 05:41:38;;;;;;;2.65;1.75;;;11.60;99.90;;;;;;4968413;28;20081;-88
2022/10/18 05:44:05;;;;;;;2.60;1.40;;;11.60;99.90;;;;;;4975472;28;20053;-92
2022/10/18 05:46:40;;;;;;;2.20;1.33;;;11.50;99.90;;;;;;4967903;28;20043;-91
2022/10/18 05:49:11;;;;;;;2.25;1.30;;;11.50;99.90;;;;;;4959052;28;20060;-88
2022/10/18 05:51:37;;;;;;;2.80;1.30;;;11.40;99.90;;;;;;4975733;28;20062;-87
2022/10/18 05:54:03;;;;;;;2.00;1.25;;;11.40;99.90;;;;;;4974447;28;20039;-87
2022/10/18 05:56:28;;;;;;;2.55;1.80;;;11.70;99.90;;;;;;4966313;28;20046;-88
2022/10/18 05:58:54;;;;;;;3.17;2.28;;;11.40;99.90;;;;;;4966289;28;20055;-85
2022/10/18 06:01:22;;;;;;;2.85;1.85;;;11.40;99.90;;;;;;4975652;28;20070;-90
2022/10/18 06:03:51;;;;;;;3.65;2.92;;;11.90;99.90;;;;;;4969561;28;20388;-91
2022/10/18 06:09:07;;;;;;;;;;;;;;;;;;;;;
2022/10/18 06:11:57;;;;;;;1.63;1.30;;;11.20;99.90;;;;;;4945669;28;20050;-93
2022/10/18 06:14:31;;;;;;;1.55;1.15;;;11.20;99.90;;;;;;4951289;28;20054;-90
2022/10/18 06:17:00;;;;;;;1.80;1.02;;;11.20;99.90;;;;;;4974195;28;20070;-90
2022/10/18 06:19:25;;;;;;;1.38;0.90;;;11.20;99.90;;;;;;4957131;28;20070;-88
2022/10/18 06:21:53;;;;;;;2.45;1.08;;;11.10;99.90;;;;;;4960354;28;20073;-89
2022/10/18 06:24:20;;;;;;;2.22;1.10;;;11.10;99.90;;;;;;4957932;28;20496;-90
2022/10/18 06:26:49;;;;;;;1.45;1.10;;;11.30;99.90;;;;;;4964963;28;20043;-89
2022/10/18 06:29:19;;;;;;;1.70;1.00;;;11.00;99.90;;;;;;4986205;28;20039;-89
2022/10/18 06:32:08;;;;;;;1.55;0.82;;;11.10;99.90;;;;;;4965164;28;20038;-89
2022/10/18 06:34:33;;;;;;;1.63;1.05;;;11.00;99.90;;;;;;4969935;28;20561;-90
2022/10/18 06:36:59;;;;;;;1.80;1.00;;;11.50;99.90;;;;;;4974243;28;20046;-89
2022/10/18 06:39:25;;;;;;;1.85;1.08;;;10.90;99.90;;;;;;4973853;28;20034;-89
2022/10/18 06:41:56;;;;;;;1.33;1.08;;;11.60;99.90;;;;;;4956565;28;20058;-90
2022/10/18 06:44:24;;;;;;;1.88;1.10;;;11.10;99.90;;;;;;4943531;28;20043;-89
2022/10/18 06:46:52;;;;;;;1.45;0.90;;;10.80;99.90;;;;;;4967117;28;20070;-89
2022/10/18 06:49:19;;;;;;;1.38;0.90;;;11.40;99.90;;;;;;4956685;28;20038;-89
2022/10/18 06:51:49;;;;;;;2.00;1.05;;;10.70;99.90;;;;;;4956966;28;20058;-86
2022/10/18 06:54:25;;;;;;;;;;;;;;;;;;;;;
2022/10/18 06:56:56;;;;;;;1.58;1.00;;;10.70;99.90;;;;;;4953537;28;20086;-91
2022/10/18 06:59:22;;;;;;;1.27;0.88;;;11.40;99.90;;;;;;4948589;28;20046;-89
2022/10/18 07:01:55;;;;;;;1.27;0.85;;;10.70;99.90;;;;;;4971646;28;20043;-89
2022/10/18 07:04:21;;;;;;;1.10;0.90;;;10.60;99.90;;;;;;4970105;28;20038;-90
2022/10/18 07:06:47;;;;;;;1.23;0.93;;;10.70;99.90;;;;;;4972571;28;20082;-88
2022/10/18 07:09:17;;;;;;;2.63;1.20;;;10.80;99.90;;;;;;4971983;28;20050;-88
2022/10/18 07:11:43;;;;;;;1.98;1.10;;;10.60;99.90;;;;;;4956144;28;20054;-89
2022/10/18 07:14:08;;;;;;;1.20;0.90;;;11.30;99.90;;;;;;4956016;28;20495;-90
2022/10/18 07:16:34;;;;;;;1.20;0.90;;;11.70;99.90;;;;;;4964424;28;20086;-89
2022/10/18 07:19:00;;;;;;;1.40;0.90;;;11.40;99.90;;;;;;4952948;28;20066;-90
2022/10/18 07:21:34;;;;;;;1.33;0.93;;;10.60;99.90;;;;;;4964337;28;20031;-90
2022/10/18 07:24:00;;;;;;;0.98;0.88;;;11.60;99.90;;;;;;4955553;28;20408;-91
2022/10/18 07:26:46;;;;;;;1.10;0.80;;;10.60;99.90;;;;;;4952986;29;20039;-91
2022/10/18 07:29:12;;;;;;;1.25;0.90;;;11.40;99.90;;;;;;4956778;28;20141;-90
2022/10/18 07:31:38;;;;;;;2.65;1.00;;;10.80;99.90;;;;;;4941630;28;20070;-90
2022/10/18 07:34:07;;;;;;;1.88;1.00;;;10.80;99.90;;;;;;4955694;28;20050;-89
2022/10/18 07:36:34;;;;;;;1.40;0.90;;;10.80;99.90;;;;;;4948782;29;20105;-87
2022/10/18 07:39:02;;;;;;;1.15;0.80;;;11.10;99.90;;;;;;4965284;28;20118;-87
2022/10/18 07:41:30;;;;;;;0.80;0.75;;;10.90;99.90;;;;;;4968055;28;20073;-89
2022/10/18 07:43:57;;;;;;;1.52;0.82;;;11.00;99.90;;;;;;4987298;23;20111;-88
2022/10/18 07:46:24;;;;;;;0.98;0.73;;;11.10;99.90;;;;;;4986359;28;20051;-89
2022/10/18 07:48:50;;;;;;;1.25;0.80;;;10.90;99.90;;;;;;4967762;28;20051;-88
2022/10/18 07:54:02;;;;;;;1.83;0.88;;;11.20;99.90;;;;;;5108116;23;20119;-85
2022/10/18 07:56:49;;;;;;;0.80;0.60;;;11.30;99.90;;;;;;5017555;23;20039;-91
2022/10/18 07:59:17;;;;;;;1.48;0.80;;;11.30;99.90;;;;;;5018664;28;20038;-92
2022/10/18 08:04:45;;;;;;;3.25;1.60;;;11.60;99.90;;;;;;5386965;23;20054;-90
2022/10/18 08:07:11;;;;;;;1.75;0.90;;;11.60;99.90;;;;;;4978410;28;20050;-91
2022/10/18 08:09:38;;;;;;;1.55;0.75;;;11.70;99.90;;;;;;4963467;28;20132;-91
2022/10/18 08:12:05;;;;;;;1.95;1.20;;;11.80;99.90;;;;;;4981632;28;20054;-87
2022/10/18 08:18:52;;;;;;;1.73;0.80;;;11.90;99.90;;;;;;4980886;28;20403;-88
2022/10/18 08:21:19;;;;;;;3.10;0.82;;;12.00;99.90;;;;;;4956697;28;20149;-87
2022/10/18 08:23:46;;;;;;;8.70;1.35;;;12.10;99.90;;;;;;4974173;28;20070;-87
2022/10/18 08:26:15;;;;;;;2.88;0.93;;;12.10;99.90;;;;;;4945810;28;20054;-89
2022/10/18 08:28:41;;;;;;;1.67;0.70;;;12.60;99.90;;;;;;4962601;28;20130;-87
2022/10/18 08:31:16;;;;;;;1.50;0.57;;;12.30;99.90;;;;;;4974855;28;20407;-84
2022/10/18 08:33:42;;;;;;;3.00;1.20;;;12.30;99.90;;;;;;4973355;28;20400;-86
2022/10/18 08:36:12;;;;;;;3.20;0.70;;;12.40;99.90;;;;;;4973856;28;20035;-87
2022/10/18 08:38:39;;;;;;;1.13;0.68;;;12.50;99.90;;;;;;4956679;28;20198;-88
2022/10/18 08:41:26;;;;;;;1.35;0.60;;;12.60;99.90;;;;;;4956303;28;20054;-87
2022/10/18 08:44:10;;;;;;;1.67;0.50;;;12.70;99.90;;;;;;4973728;28;20066;-88
2022/10/18 08:46:41;;;;;;;4.00;0.70;;;13.20;99.90;;;;;;4981905;28;20042;-89
2022/10/18 08:49:18;;;;;;;1.75;0.60;;;12.90;99.90;;;;;;4970221;28;20045;-88
2022/10/18 08:51:47;;;;;;;2.45;0.98;;;13.00;99.90;;;;;;4974014;28;20035;-88
2022/10/18 08:54:21;;;;;;;2.08;0.70;;;13.10;99.90;;;;;;4957507;28;20125;-90
2022/10/18 08:56:58;;;;;;;1.17;0.55;;;13.20;99.90;;;;;;4980105;28;20113;-88
2022/10/18 08:59:24;;;;;;;1.63;0.50;;;13.30;99.90;;;;;;4971659;28;20045;-91
2022/10/18 09:02:02;;;;;;;1.65;0.60;;;13.30;99.90;;;;;;4957496;28;20047;-90
2022/10/18 09:05:21;;;;;;;3.80;0.68;;;14.00;99.90;;;;;;4956073;28;20047;-90
2022/10/18 09:07:50;;;;;;;3.05;0.55;;;13.50;99.90;;;;;;4919521;29;20532;-92
2022/10/18 09:10:40;;;;;;;1.35;0.50;;;13.60;99.90;;;;;;4924490;29;20183;-89
2022/10/18 09:13:30;;;;;;;1.27;0.50;;;13.70;99.90;;;;;;4903555;29;20071;-90
2022/10/18 09:16:07;;;;;;;5.60;0.82;;;13.80;99.90;;;;;;4914747;29;20073;-90
2022/10/18 09:18:50;;;;;;;2.97;0.57;;;13.90;99.90;;;;;;4902284;29;20139;-90
2022/10/18 09:21:26;;;;;;;1.35;0.40;;;14.00;99.90;;;;;;4912049;29;20043;-88
2022/10/18 09:24:12;;;;;;;1.75;0.40;;;14.10;99.90;;;;;;4896565;29;20060;-89
2022/10/18 09:26:44;;;;;;;2.03;0.38;;;14.20;99.90;;;;;;4901203;29;20052;-87
2022/10/18 09:29:37;;;;;;;4.25;0.50;;;14.30;99.90;;;;;;4901832;29;20051;-88
2022/10/18 09:32:30;;;;;;;1.42;0.30;;;14.40;99.90;;;;;;4916773;29;20245;-87
2022/10/18 09:35:14;;;;;;;1.45;0.38;;;14.50;99.90;;;;;;4902705;29;20056;-89
2022/10/18 09:37:41;;;;;;;1.52;0.40;;;14.60;99.90;;;;;;4935437;28;20058;-87
2022/10/18 09:40:26;;;;;;;2.33;0.35;;;14.60;99.90;;;;;;4961494;28;20467;-90
2022/10/18 09:43:00;;;;;;;2.53;0.40;;;14.70;99.90;;;;;;4958864;28;20108;-88
2022/10/18 09:45:33;;;;;;;7.18;0.50;;;14.90;99.90;;;;;;4959096;28;20050;-91
2022/10/18 09:48:17;;;;;;;3.50;0.50;;;14.90;99.90;;;;;;4977167;28;20055;-89
2022/10/18 09:51:02;;;;;;;3.90;0.45;;;15.00;99.90;;;;;;4978179;28;20050;-90
2022/10/18 09:53:32;;;;;;;1.88;0.47;;;15.10;99.90;;;;;;4983253;28;20450;-90
2022/10/18 09:56:11;;;;;;;4.03;0.50;;;15.20;99.90;;;;;;4987541;28;20062;-88
2022/10/18 09:58:44;;;;;;;2.60;0.35;;;15.20;99.90;;;;;;4962539;28;20398;-88
2022/10/18 10:01:21;;;;;;;2.15;0.40;;;15.30;99.90;;;;;;4980847;28;20038;-87
2022/10/18 10:03:47;;;;;;;2.95;0.38;;;15.40;99.90;;;;;;4964440;28;20042;-88
2022/10/18 10:06:15;;;;;;;2.50;0.30;;;15.50;99.90;;;;;;4976820;28;20089;-90
2022/10/18 10:09:16;;;;;;;3.88;0.50;;;15.40;99.90;;;;;;4962031;28;20085;-94
2022/10/18 10:11:54;;;;;;;7.50;0.93;;;15.80;99.90;;;;;;4945246;29;20064;-90
2022/10/18 10:14:29;;;;;;;6.38;0.50;;;16.00;99.90;;;;;;4922883;29;20083;-93
2022/10/18 10:17:02;;;;;;;3.37;0.60;;;16.00;99.90;;;;;;4931169;29;20059;-93
2022/10/18 10:19:34;;;;;;;5.32;0.65;;;16.10;99.90;;;;;;4936779;29;20288;-92
2022/10/18 10:22:09;;;;;;;7.38;1.35;;;16.00;99.90;;;;;;4920746;29;20074;-89
2022/10/18 10:24:52;;;;;;;6.97;0.63;;;15.90;99.90;;;;;;4925450;29;20058;-92
2022/10/18 10:27:32;;;;;;;7.03;1.25;;;16.10;99.90;;;;;;4937268;29;20087;-89
2022/10/18 10:30:01;;;;;;;3.15;0.43;;;16.20;99.90;;;;;;4925248;29;20682;-92
2022/10/18 10:32:43;;;;;;;2.58;0.60;;;16.20;99.90;;;;;;4927423;29;20049;-89
2022/10/18 10:35:37;;;;;;;6.30;0.65;;;16.20;99.90;;;;;;5097242;23;20781;-92
2022/10/18 10:38:06;;;;;;;6.40;0.50;;;16.50;99.90;;;;;;5009735;23;20113;-94
2022/10/18 10:40:49;;;;;;;6.80;0.73;;;16.50;99.90;;;;;;4997255;28;20081;-92
2022/10/18 10:43:32;;;;;;;5.72;0.70;;;16.60;99.90;;;;;;4997590;28;20522;-89
2022/10/18 10:49:46;;;;;;;7.20;0.80;;;16.50;99.90;;;;;;4995744;28;20081;-91
2022/10/18 10:52:21;;;;;;;4.25;0.60;;;16.60;99.90;;;;;;4985527;28;20066;-90
2022/10/18 10:54:47;;;;;;;6.43;0.50;;;16.70;99.90;;;;;;4984819;28;20050;-91
2022/10/18 10:57:13;;;;;;;9.52;0.60;;;16.60;99.90;;;;;;4976956;28;20154;-93
2022/10/18 10:59:45;;;;;;;9.50;0.70;;;16.40;99.90;;;;;;4960504;28;20121;-92
2022/10/18 11:02:16;;;;;;;2.60;0.40;;;16.70;99.90;;;;;;4982246;28;20042;-92
2022/10/18 11:04:46;;;;;;;6.07;0.68;;;16.60;99.90;;;;;;4983982;28;20042;-92
2022/10/18 11:07:41;;;;;;;6.47;0.88;;;16.70;99.90;;;;;;4998785;28;20061;-94
2022/10/18 11:13:17;;;;;;;5.20;0.50;;;17.00;99.90;;;;;;4993023;28;20398;-90
2022/10/18 11:19:31;;;;;;;4.80;0.50;;;16.80;99.90;;;;;;5005745;28;20037;-88
2022/10/18 11:21:59;;;;;;;2.28;0.20;;;16.90;99.90;;;;;;5000050;28;20080;-88
2022/10/18 11:24:27;;;;;;;4.95;0.60;;;16.90;99.90;;;;;;5010996;28;20034;-88
2022/10/18 11:27:07;;;;;;;3.95;0.40;;;17.10;99.90;;;;;;5015437;28;20100;-89
2022/10/18 11:30:15;;;;;;;4.78;0.55;;;17.00;99.90;;;;;;5006994;28;20050;-89
2022/10/18 11:32:59;;;;;;;3.47;0.50;;;17.00;99.90;;;;;;5005677;28;20057;-87
2022/10/18 11:36:06;;;;;;;5.53;0.68;;;16.80;99.90;;;;;;4997595;23;20062;-90
2022/10/18 11:38:53;;;;;;;8.68;1.17;;;16.80;99.90;;;;;;4962686;28;20515;-92
2022/10/18 11:41:56;;;;;;;8.35;0.98;;;16.70;99.90;;;;;;4943805;28;20130;-91
2022/10/18 11:44:41;;;;;;;5.30;0.50;;;16.80;99.90;;;;;;4940704;28;20151;-90
2022/10/18 11:47:25;;;;;;;3.55;0.50;;;16.70;99.90;;;;;;4960789;28;20126;-89
2022/10/18 11:50:41;;;;;;;5.55;0.90;;;16.50;99.90;;;;;;4938374;29;20472;-92
2022/10/18 11:53:30;;;;;;;4.18;0.65;;;16.60;99.90;;;;;;4940806;29;20130;-85
2022/10/18 11:56:22;;;;;;;2.13;0.40;;;16.60;99.90;;;;;;4955915;28;20058;-92
2022/10/18 11:59:22;;;;;;;5.63;0.55;;;16.60;99.90;;;;;;4957965;28;20103;-91
2022/10/18 12:02:15;;;;;;;4.85;0.57;;;16.30;99.90;;;;;;4969149;28;20097;-90
2022/10/18 12:04:50;;;;;;;4.13;0.60;;;16.30;99.90;;;;;;4949610;28;20090;-89
2022/10/18 12:07:20;;;;;;;2.80;0.60;;;16.00;99.90;;;;;;4954710;28;20053;-92
2022/10/18 12:09:49;;;;;;;6.15;0.82;;;16.30;99.90;;;;;;4957986;28;20057;-91
2022/10/18 12:12:38;;;;;;;5.78;1.20;;;16.20;99.90;;;;;;4943198;28;20075;-91
2022/10/18 12:15:20;;;;;;;3.15;0.50;;;16.30;99.90;;;;;;4941293;29;20047;-88
2022/10/18 12:18:04;;;;;;;4.78;0.63;;;16.20;99.90;;;;;;4941204;28;20039;-92
2022/10/18 12:20:48;;;;;;;2.40;0.47;;;16.10;99.90;;;;;;4939443;28;20051;-92
2022/10/18 12:24:17;;;;;;;2.58;0.50;;;16.30;99.90;;;;;;4938334;28;20042;-90
2022/10/18 12:26:48;;;;;;;3.55;0.43;;;16.40;99.90;;;;;;5058309;23;20043;-87
2022/10/18 12:32:31;;;;;;;5.03;0.60;;;16.70;99.90;;;;;;5005229;23;20043;-86
2022/10/18 12:35:23;;;;;;;3.10;0.60;;;16.80;99.90;;;;;;4960145;28;20053;-87
2022/10/18 12:38:23;;;;;;;6.10;0.43;;;17.00;99.90;;;;;;4950158;28;20055;-94
2022/10/18 12:41:14;;;;;;;4.97;0.50;;;17.30;99.90;;;;;;4943327;28;20514;-91
2022/10/18 12:51:14;;;;;;;3.80;0.40;;;17.20;99.90;;;;;;4958927;28;20086;-88
2022/10/18 12:53:41;;;;;;;4.65;0.50;;;17.10;99.90;;;;;;4959448;29;20059;-89
2022/10/18 12:56:33;;;;;;;3.33;0.55;;;17.40;99.90;;;;;;4942058;29;20043;-93
2022/10/18 12:59:14;;;;;;;6.47;0.70;;;17.30;99.90;;;;;;4972815;28;20053;-89
2022/10/18 13:01:52;;;;;;;4.82;0.60;;;17.50;99.90;;;;;;4961639;28;20062;-90
2022/10/18 13:04:26;;;;;;;7.28;0.68;;;17.50;99.90;;;;;;4961720;28;20106;-92
2022/10/18 13:06:58;;;;;;;10.68;1.13;;;17.70;99.90;;;;;;4961322;28;20062;-87
2022/10/18 13:09:29;;;;;;;7.03;0.60;;;17.70;99.90;;;;;;4966128;28;20303;-93
2022/10/18 13:12:06;;;;;;;2.45;0.60;;;17.50;99.90;;;;;;4971438;28;20121;-86
2022/10/18 13:15:12;;;;;;;6.30;0.73;;;17.40;99.90;;;;;;4967552;28;20039;-90
2022/10/18 13:17:57;;;;;;;4.40;0.50;;;17.30;99.90;;;;;;4946167;28;20144;-87
2022/10/18 13:20:55;;;;;;;5.47;1.10;;;17.30;99.90;;;;;;4963162;28;20058;-92
2022/10/18 13:23:41;;;;;;;6.30;0.60;;;17.50;99.90;;;;;;4978906;28;20065;-87
2022/10/18 13:26:41;;;;;;;2.20;0.50;;;17.50;99.90;;;;;;4977443;28;20496;-89
2022/10/18 13:29:12;;;;;;;5.13;0.70;;;17.60;99.90;;;;;;4966965;28;20503;-91
2022/10/18 13:31:56;;;;;;;5.82;1.63;;;17.70;99.90;;;;;;4967991;28;20097;-89
2022/10/18 13:34:33;;;;;;;6.75;0.70;;;17.60;99.90;;;;;;4977194;28;20050;-89
2022/10/18 13:37:05;;;;;;;5.40;0.90;;;17.50;99.90;;;;;;4976227;28;20142;-91
2022/10/18 13:39:32;;;;;;;4.70;0.85;;;17.50;99.90;;;;;;4976883;28;20065;-90
2022/10/18 13:41:57;;;;;;;3.00;0.40;;;17.50;99.90;;;;;;4975443;28;20145;-89
2022/10/18 13:44:36;;;;;;;6.63;0.50;;;17.30;99.90;;;;;;4963046;28;20510;-90
2022/10/18 13:47:01;;;;;;;5.57;0.52;;;17.10;99.90;;;;;;4956348;29;20047;-89
2022/10/18 13:49:42;;;;;;;7.93;0.57;;;17.00;99.90;;;;;;4955916;29;20055;-90
2022/10/18 13:52:28;;;;;;;5.35;0.80;;;17.10;99.90;;;;;;4956135;29;20055;-88
2022/10/18 13:55:12;;;;;;;4.30;0.50;;;17.00;99.90;;;;;;4957157;29;20043;-89